Cape Balder — V7KA5 — position and weather

sailwx.info

Track history (hours):
 
Tides and Currents Weather Stations Pressure Air Temp Water Temp Dewpoint Dewpoint Depression Visibility Wind Speed Wind Dir Waves Ship Positions

Cape Balder

Last reported at 2015-Mar-27 10:15 UTC. Time now 2015-Mar-28 05:15 UTC.
Position N 35°58' W 005°31'.

Length 274 m; draft 14.9 m.

Type: Ship. MMSI: 538005854.

Date/timePositionNaut miles runAvg speedWind from/ knotsBaromVisibWave heightAir tempDewpointWater temp
2015-Mar-27 10:15N 35°58' W 005°31'7 9.7
2015-Mar-27 09:34N 36°01' W 005°23'5 4.4
2015-Mar-27 08:19N 36°07' W 005°21'0 0.1
2015-Mar-27 07:31N 36°07' W 005°21'0 0.1
2015-Mar-27 06:24N 36°07' W 005°21'0 0.0
2015-Mar-27 05:18N 36°07' W 005°22'0 0.0
2015-Mar-27 04:32N 36°07' W 005°22'0 0.0
2015-Mar-27 03:29N 36°07' W 005°22'0 0.1
2015-Mar-27 02:31N 36°07' W 005°22'0 0.2
2015-Mar-27 01:16N 36°07' W 005°22'0 0.0
2015-Mar-27 00:31N 36°07' W 005°22'0 0.0
2015-Mar-26 23:33N 36°07' W 005°22'2 1.5
2015-Mar-26 22:31N 36°05' W 005°20'5 5.7
2015-Mar-26 21:33N 36°05' W 005°14'1 1.4
2015-Mar-26 20:33N 36°05' W 005°15'  
2015-Mar-24 01:07N 37°23' E 011°24'4712.8
2015-Mar-23 21:25N 37°02' E 012°17'3713.0
2015-Mar-23 18:33N 36°49' E 013°01'1313.0
2015-Mar-23 17:33N 36°44' E 013°16'1313.0
2015-Mar-23 16:33N 36°40' E 013°31'1612.6
2015-Mar-23 15:16N 36°34' E 013°50'1112.4
2015-Mar-23 14:21N 36°31' E 014°04'1012.4
2015-Mar-23 13:33N 36°27' E 014°15'  
Track history (hours):
 
Tides and Currents Weather Stations Pressure Air Temp Water Temp Dewpoint Dewpoint Depression Visibility Wind Speed Wind Dir Waves Ship Positions

Cape Balder

Last reported at 2015-Mar-27 10:15 UTC. Time now 2015-Mar-28 05:15 UTC.
Position N 35°58' W 005°31'.

Length 274 m; draft 14.9 m.

Type: Ship. MMSI: 538005854.

Date/timePositionNaut miles runAvg speedWind from/ knotsBaromVisibWave heightAir tempDewpointWater temp
2015-Mar-27 10:15N 35°58' W 005°31'7 9.7
2015-Mar-27 09:34N 36°01' W 005°23'5 4.4
2015-Mar-27 08:19N 36°07' W 005°21'0 0.1
2015-Mar-27 07:31N 36°07' W 005°21'0 0.1
2015-Mar-27 06:24N 36°07' W 005°21'0 0.0
2015-Mar-27 05:18N 36°07' W 005°22'0 0.0
2015-Mar-27 04:32N 36°07' W 005°22'0 0.0
2015-Mar-27 03:29N 36°07' W 005°22'0 0.1
2015-Mar-27 02:31N 36°07' W 005°22'0 0.2
2015-Mar-27 01:16N 36°07' W 005°22'0 0.0
2015-Mar-27 00:31N 36°07' W 005°22'0 0.0
2015-Mar-26 23:33N 36°07' W 005°22'2 1.5
2015-Mar-26 22:31N 36°05' W 005°20'5 5.7
2015-Mar-26 21:33N 36°05' W 005°14'1 1.4
2015-Mar-26 20:33N 36°05' W 005°15'  
2015-Mar-24 01:07N 37°23' E 011°24'4712.8
2015-Mar-23 21:25N 37°02' E 012°17'3713.0
2015-Mar-23 18:33N 36°49' E 013°01'1313.0
2015-Mar-23 17:33N 36°44' E 013°16'1313.0
2015-Mar-23 16:33N 36°40' E 013°31'1612.6
2015-Mar-23 15:16N 36°34' E 013°50'1112.4
2015-Mar-23 14:21N 36°31' E 014°04'1012.4
2015-Mar-23 13:33N 36°27' E 014°15'  

Dump ship's entire track history